首页
METAR-TAF:

METAR-TAF

机场 :

倫敦盧頓機場

卢顿, 英格兰

纬度: 51-52N, 经度: 000-22W, 海拔: 160米

当前天气观测

该预报发布于16分钟前的03:20 UTC
风速5节,风向,在东南西南之间变化
温度 7°C
湿度 87%
气压 1007 hPa
能见度10公里或以上
散云层高于2500英尺

METAR: EGGW 240320Z AUTO 19005KT 140V220 9999 SCT025 07/05 Q1007

时间: 04:36 (03:36 UTC)

预报

该预报发布于4小时和27分钟前的23:09 UTC
预报有效从24日的 00点(UTC)到 24日的 24点(UTC)
风速7节,风向
能见度10公里或以上
散云层高于4000英尺
成为
从 24日的 07点(UTC)到 24日的 10点(UTC)
风速20节,风向,有时为32节阵风
几率 30% :
短暂存在
从 24日的 09点(UTC)到 24日的 15点(UTC)
能見度: 8000
多云层高于1200英尺
小雨
短暂存在
从 24日的 15点(UTC)到 24日的 24点(UTC)
能見度: 6000
多云层高于1000英尺
几率 40% :
短暂存在
从 24日的 15点(UTC)到 24日的 18点(UTC)
风速25节,风向南转西南,有时为42节阵风
能見度: 3000
大阵雨
成为
从 24日的 16点(UTC)到 24日的 19点(UTC)
风速12节,风向西南
几率 40% :
短暂存在
从 24日的 19点(UTC)到 24日的 24点(UTC)
风速18节,风向西南,有时为30节阵风
几率 30% :
短暂存在
从 24日的 21点(UTC)到 24日的 24点(UTC)
能見度: 3000
大阵雨

TAF: EGGW 232309Z 2400/2424 19007KT 9999 SCT040 BECMG 2407/2410 19020G32KT PROB30 TEMPO 2409/2415 8000 -RA BKN012 TEMPO 2415/2424 6000 RA BKN010 PROB40 TEMPO 2415/2418 20025G42KT 3000 +SHRA BECMG 2416/2419 22012KT PROB40 TEMPO 2419/2424 23018G30KT PROB30 TEMPO 2421/2424 3000 +SHRA

超过4000个机场的气象观测和天气预报(METAR&TAF报告)。

可查询的气象台以黄色和红色小点在地图上表示。

将鼠标移到小点上方,可查看气象台名称。

然后点击查看天气观测和预报。

如需切换地图:点击带黑十字的绿色按钮放大地图;点击带横线的绿色按钮缩小地图;或者点击绿色箭头查看邻近地区的地图。


METAR-TAF: